sensor_id;sensor_type;location;lat;lon;timestamp;temperature;humidity
1476;DHT22;730;48.870;12.542;2023-02-15T00:01:51;1.30;9.90
1476;DHT22;730;48.870;12.542;2023-02-15T00:04:20;1.30;10.30
1476;DHT22;730;48.870;12.542;2023-02-15T00:06:46;1.30;10.40
1476;DHT22;730;48.870;12.542;2023-02-15T00:09:12;1.30;10.50
1476;DHT22;730;48.870;12.542;2023-02-15T00:11:38;1.30;10.70
1476;DHT22;730;48.870;12.542;2023-02-15T00:14:22;1.20;10.90
1476;DHT22;730;48.870;12.542;2023-02-15T00:16:50;1.20;11.30
1476;DHT22;730;48.870;12.542;2023-02-15T00:19:18;1.10;11.70
1476;DHT22;730;48.870;12.542;2023-02-15T00:21:45;1.10;12.00
1476;DHT22;730;48.870;12.542;2023-02-15T00:24:14;1.10;12.30
1476;DHT22;730;48.870;12.542;2023-02-15T00:26:41;1.20;11.90
1476;DHT22;730;48.870;12.542;2023-02-15T00:29:09;1.20;11.60
1476;DHT22;730;48.870;12.542;2023-02-15T00:31:36;1.20;11.70
1476;DHT22;730;48.870;12.542;2023-02-15T00:34:12;1.20;11.90
1476;DHT22;730;48.870;12.542;2023-02-15T00:36:39;1.20;11.60
1476;DHT22;730;48.870;12.542;2023-02-15T00:39:05;1.10;11.60
1476;DHT22;730;48.870;12.542;2023-02-15T00:41:39;1.10;11.60
1476;DHT22;730;48.870;12.542;2023-02-15T00:44:05;1.10;11.60
1476;DHT22;730;48.870;12.542;2023-02-15T00:46:32;1.00;11.70
1476;DHT22;730;48.870;12.542;2023-02-15T00:48:58;1.00;12.30
1476;DHT22;730;48.870;12.542;2023-02-15T00:51:24;1.10;12.00
1476;DHT22;730;48.870;12.542;2023-02-15T00:53:50;1.10;11.90
1476;DHT22;730;48.870;12.542;2023-02-15T00:56:17;1.20;11.70
1476;DHT22;730;48.870;12.542;2023-02-15T00:58:43;1.20;11.40
1476;DHT22;730;48.870;12.542;2023-02-15T01:01:12;1.30;11.20
1476;DHT22;730;48.870;12.542;2023-02-15T01:03:39;1.30;10.90
1476;DHT22;730;48.870;12.542;2023-02-15T01:06:07;1.40;10.70
1476;DHT22;730;48.870;12.542;2023-02-15T01:08:33;1.30;10.50
1476;DHT22;730;48.870;12.542;2023-02-15T01:11:11;1.30;10.70
1476;DHT22;730;48.870;12.542;2023-02-15T01:13:37;1.30;10.60
1476;DHT22;730;48.870;12.542;2023-02-15T01:16:04;1.30;10.40
1476;DHT22;730;48.870;12.542;2023-02-15T01:18:30;1.20;10.40
1476;DHT22;730;48.870;12.542;2023-02-15T01:20:56;1.20;10.40
1476;DHT22;730;48.870;12.542;2023-02-15T01:23:23;1.10;10.80
1476;DHT22;730;48.870;12.542;2023-02-15T01:25:49;1.10;10.90
1476;DHT22;730;48.870;12.542;2023-02-15T01:28:15;1.10;11.10
1476;DHT22;730;48.870;12.542;2023-02-15T01:30:41;0.90;11.10
1476;DHT22;730;48.870;12.542;2023-02-15T01:33:07;0.90;12.10
1476;DHT22;730;48.870;12.542;2023-02-15T01:35:37;1.00;12.10
1476;DHT22;730;48.870;12.542;2023-02-15T01:38:03;1.00;12.00
1476;DHT22;730;48.870;12.542;2023-02-15T01:40:29;0.90;12.00
1476;DHT22;730;48.870;12.542;2023-02-15T01:42:55;0.90;12.50
1476;DHT22;730;48.870;12.542;2023-02-15T01:45:31;0.90;12.50
1476;DHT22;730;48.870;12.542;2023-02-15T01:50:41;0.90;12.40
1476;DHT22;730;48.870;12.542;2023-02-15T01:53:24;0.90;12.50
1476;DHT22;730;48.870;12.542;2023-02-15T01:56:02;0.90;12.70
1476;DHT22;730;48.870;12.542;2023-02-15T01:58:32;1.00;12.40
1476;DHT22;730;48.870;12.542;2023-02-15T02:01:00;1.10;11.90
1476;DHT22;730;48.870;12.542;2023-02-15T02:06:20;1.10;11.40
1476;DHT22;730;48.870;12.542;2023-02-15T02:08:48;1.10;11.40
1476;DHT22;730;48.870;12.542;2023-02-15T02:11:14;1.00;11.30
1476;DHT22;730;48.870;12.542;2023-02-15T02:13:42;1.10;11.50
1476;DHT22;730;48.870;12.542;2023-02-15T02:16:18;1.10;11.20
1476;DHT22;730;48.870;12.542;2023-02-15T02:19:05;1.10;10.90
1476;DHT22;730;48.870;12.542;2023-02-15T02:24:20;1.10;11.00
1476;DHT22;730;48.870;12.542;2023-02-15T02:29:38;0.90;11.40
1476;DHT22;730;48.870;12.542;2023-02-15T02:46:24;0.90;12.50
1476;DHT22;730;48.870;12.542;2023-02-15T02:48:52;0.80;12.20
1476;DHT22;730;48.870;12.542;2023-02-15T02:51:18;0.70;13.20
1476;DHT22;730;48.870;12.542;2023-02-15T02:53:51;0.80;13.30
1476;DHT22;730;48.870;12.542;2023-02-15T02:56:43;0.90;12.90
1476;DHT22;730;48.870;12.542;2023-02-15T02:59:20;1.00;12.60
1476;DHT22;730;48.870;12.542;2023-02-15T03:04:25;1.10;12.00
1476;DHT22;730;48.870;12.542;2023-02-15T03:07:00;1.20;11.60
1476;DHT22;730;48.870;12.542;2023-02-15T03:09:37;1.20;11.50
1476;DHT22;730;48.870;12.542;2023-02-15T03:12:25;1.20;11.30
1476;DHT22;730;48.870;12.542;2023-02-15T03:14:57;1.20;10.80
1476;DHT22;730;48.870;12.542;2023-02-15T03:17:27;1.20;10.70
1476;DHT22;730;48.870;12.542;2023-02-15T03:19:58;1.20;11.10
1476;DHT22;730;48.870;12.542;2023-02-15T03:22:38;1.10;11.10
1476;DHT22;730;48.870;12.542;2023-02-15T03:25:20;1.10;10.70
1476;DHT22;730;48.870;12.542;2023-02-15T03:27:51;1.00;11.00
1476;DHT22;730;48.870;12.542;2023-02-15T03:30:19;1.10;11.00
1476;DHT22;730;48.870;12.542;2023-02-15T03:32:47;1.10;10.90
1476;DHT22;730;48.870;12.542;2023-02-15T03:35:14;1.10;11.00
1476;DHT22;730;48.870;12.542;2023-02-15T03:37:47;1.10;10.80
1476;DHT22;730;48.870;12.542;2023-02-15T03:40:37;1.20;10.90
1476;DHT22;730;48.870;12.542;2023-02-15T03:45:57;1.20;11.00
1476;DHT22;730;48.870;12.542;2023-02-15T03:48:40;1.20;10.90
1476;DHT22;730;48.870;12.542;2023-02-15T03:51:16;1.20;10.80
1476;DHT22;730;48.870;12.542;2023-02-15T03:54:13;1.10;10.50
1476;DHT22;730;48.870;12.542;2023-02-15T03:57:01;1.00;10.70
1476;DHT22;730;48.870;12.542;2023-02-15T03:59:46;1.00;11.10
1476;DHT22;730;48.870;12.542;2023-02-15T04:02:39;1.00;11.30
1476;DHT22;730;48.870;12.542;2023-02-15T04:05:07;1.00;11.10
1476;DHT22;730;48.870;12.542;2023-02-15T04:07:33;1.00;11.30
1476;DHT22;730;48.870;12.542;2023-02-15T04:09:59;1.00;11.50
1476;DHT22;730;48.870;12.542;2023-02-15T04:12:43;1.00;11.50
1476;DHT22;730;48.870;12.542;2023-02-15T04:15:12;1.10;11.50
1476;DHT22;730;48.870;12.542;2023-02-15T04:17:57;1.10;11.20
1476;DHT22;730;48.870;12.542;2023-02-15T04:20:23;1.10;11.50
1476;DHT22;730;48.870;12.542;2023-02-15T04:23:07;1.10;11.50
1476;DHT22;730;48.870;12.542;2023-02-15T04:25:52;1.00;11.00
1476;DHT22;730;48.870;12.542;2023-02-15T04:28:18;1.00;11.30
1476;DHT22;730;48.870;12.542;2023-02-15T04:30:44;1.00;11.40
1476;DHT22;730;48.870;12.542;2023-02-15T04:33:12;1.00;11.50
1476;DHT22;730;48.870;12.542;2023-02-15T04:35:38;1.10;11.50
1476;DHT22;730;48.870;12.542;2023-02-15T04:38:04;1.10;11.40
1476;DHT22;730;48.870;12.542;2023-02-15T04:40:30;1.20;11.00
1476;DHT22;730;48.870;12.542;2023-02-15T04:42:56;1.20;10.60
1476;DHT22;730;48.870;12.542;2023-02-15T04:45:22;1.10;10.80
1476;DHT22;730;48.870;12.542;2023-02-15T04:47:48;1.10;10.70
1476;DHT22;730;48.870;12.542;2023-02-15T04:50:14;1.10;11.10
1476;DHT22;730;48.870;12.542;2023-02-15T04:52:40;1.10;11.30
1476;DHT22;730;48.870;12.542;2023-02-15T04:55:07;1.10;10.90
1476;DHT22;730;48.870;12.542;2023-02-15T04:57:33;1.10;11.00
1476;DHT22;730;48.870;12.542;2023-02-15T04:59:59;1.10;10.80
1476;DHT22;730;48.870;12.542;2023-02-15T05:02:25;1.10;10.30
1476;DHT22;730;48.870;12.542;2023-02-15T05:04:51;1.10;10.60
1476;DHT22;730;48.870;12.542;2023-02-15T05:07:17;1.20;10.40
1476;DHT22;730;48.870;12.542;2023-02-15T05:09:43;1.20;10.50
1476;DHT22;730;48.870;12.542;2023-02-15T05:12:10;1.20;10.40
1476;DHT22;730;48.870;12.542;2023-02-15T05:14:36;1.30;10.20
1476;DHT22;730;48.870;12.542;2023-02-15T05:17:02;1.20;10.10
1476;DHT22;730;48.870;12.542;2023-02-15T05:19:29;1.20;10.00
1476;DHT22;730;48.870;12.542;2023-02-15T05:21:55;1.20;10.00
1476;DHT22;730;48.870;12.542;2023-02-15T05:24:21;1.30;10.10
1476;DHT22;730;48.870;12.542;2023-02-15T05:27:05;1.30;10.20
1476;DHT22;730;48.870;12.542;2023-02-15T05:29:50;1.30;10.00
1476;DHT22;730;48.870;12.542;2023-02-15T05:32:16;1.30;9.90
1476;DHT22;730;48.870;12.542;2023-02-15T05:34:42;1.30;9.90
1476;DHT22;730;48.870;12.542;2023-02-15T05:37:09;1.30;9.90
1476;DHT22;730;48.870;12.542;2023-02-15T05:39:35;1.20;9.70
1476;DHT22;730;48.870;12.542;2023-02-15T05:42:01;1.20;9.60
1476;DHT22;730;48.870;12.542;2023-02-15T05:44:52;1.20;9.70
1476;DHT22;730;48.870;12.542;2023-02-15T05:47:18;1.20;9.50
1476;DHT22;730;48.870;12.542;2023-02-15T05:49:44;1.30;9.40
1476;DHT22;730;48.870;12.542;2023-02-15T05:52:10;1.20;9.40
1476;DHT22;730;48.870;12.542;2023-02-15T05:54:37;1.20;9.20
1476;DHT22;730;48.870;12.542;2023-02-15T05:57:03;1.20;9.50
1476;DHT22;730;48.870;12.542;2023-02-15T05:59:29;1.20;9.50
1476;DHT22;730;48.870;12.542;2023-02-15T06:01:58;1.20;9.00
1476;DHT22;730;48.870;12.542;2023-02-15T06:04:24;1.20;9.00
1476;DHT22;730;48.870;12.542;2023-02-15T06:06:50;1.20;9.20
1476;DHT22;730;48.870;12.542;2023-02-15T06:09:16;1.30;9.30
1476;DHT22;730;48.870;12.542;2023-02-15T06:11:44;1.20;9.10
1476;DHT22;730;48.870;12.542;2023-02-15T06:14:11;1.20;9.20
1476;DHT22;730;48.870;12.542;2023-02-15T06:16:37;1.20;9.20
1476;DHT22;730;48.870;12.542;2023-02-15T06:19:03;1.20;9.10
1476;DHT22;730;48.870;12.542;2023-02-15T06:21:30;1.20;9.20
1476;DHT22;730;48.870;12.542;2023-02-15T06:23:57;1.20;9.10
1476;DHT22;730;48.870;12.542;2023-02-15T06:26:23;1.20;9.10
1476;DHT22;730;48.870;12.542;2023-02-15T06:28:49;1.10;9.00
1476;DHT22;730;48.870;12.542;2023-02-15T06:31:15;1.10;9.60
1476;DHT22;730;48.870;12.542;2023-02-15T06:33:41;1.10;9.80
1476;DHT22;730;48.870;12.542;2023-02-15T06:36:07;1.10;9.60
1476;DHT22;730;48.870;12.542;2023-02-15T06:38:35;1.10;9.50
1476;DHT22;730;48.870;12.542;2023-02-15T06:41:01;1.10;9.50
1476;DHT22;730;48.870;12.542;2023-02-15T06:43:28;1.00;9.90
1476;DHT22;730;48.870;12.542;2023-02-15T06:45:54;1.00;10.30
1476;DHT22;730;48.870;12.542;2023-02-15T06:48:20;1.10;10.40
1476;DHT22;730;48.870;12.542;2023-02-15T06:50:49;1.10;10.40
1476;DHT22;730;48.870;12.542;2023-02-15T06:53:16;1.10;10.20
1476;DHT22;730;48.870;12.542;2023-02-15T06:55:43;1.10;10.30
1476;DHT22;730;48.870;12.542;2023-02-15T06:58:09;1.20;9.90
1476;DHT22;730;48.870;12.542;2023-02-15T07:00:35;1.20;10.10
1476;DHT22;730;48.870;12.542;2023-02-15T07:03:02;1.20;10.00
1476;DHT22;730;48.870;12.542;2023-02-15T07:05:32;1.10;10.10
1476;DHT22;730;48.870;12.542;2023-02-15T07:07:59;1.10;10.30
1476;DHT22;730;48.870;12.542;2023-02-15T07:10:25;1.10;10.10
1476;DHT22;730;48.870;12.542;2023-02-15T07:12:52;1.10;9.90
1476;DHT22;730;48.870;12.542;2023-02-15T07:15:19;1.00;10.10
1476;DHT22;730;48.870;12.542;2023-02-15T07:17:49;1.00;10.40
1476;DHT22;730;48.870;12.542;2023-02-15T07:20:18;1.00;10.70
1476;DHT22;730;48.870;12.542;2023-02-15T07:22:45;0.90;10.60
1476;DHT22;730;48.870;12.542;2023-02-15T07:25:12;0.90;10.80
1476;DHT22;730;48.870;12.542;2023-02-15T07:27:39;0.90;11.20
1476;DHT22;730;48.870;12.542;2023-02-15T07:30:07;0.90;11.10
1476;DHT22;730;48.870;12.542;2023-02-15T07:32:34;0.90;11.40
1476;DHT22;730;48.870;12.542;2023-02-15T07:35:00;0.90;11.30
1476;DHT22;730;48.870;12.542;2023-02-15T07:37:27;0.90;11.20
1476;DHT22;730;48.870;12.542;2023-02-15T07:39:53;0.90;10.90
1476;DHT22;730;48.870;12.542;2023-02-15T07:42:19;0.90;10.70
1476;DHT22;730;48.870;12.542;2023-02-15T07:44:47;0.90;10.80
1476;DHT22;730;48.870;12.542;2023-02-15T07:47:13;0.90;11.00
1476;DHT22;730;48.870;12.542;2023-02-15T07:49:39;0.90;11.10
1476;DHT22;730;48.870;12.542;2023-02-15T07:52:05;1.00;10.70
1476;DHT22;730;48.870;12.542;2023-02-15T07:54:31;0.90;10.70
1476;DHT22;730;48.870;12.542;2023-02-15T07:56:57;0.90;10.90
1476;DHT22;730;48.870;12.542;2023-02-15T07:59:23;0.80;10.90
1476;DHT22;730;48.870;12.542;2023-02-15T08:01:50;0.90;10.90
1476;DHT22;730;48.870;12.542;2023-02-15T08:04:18;0.80;10.90
1476;DHT22;730;48.870;12.542;2023-02-15T08:06:44;0.80;11.00
1476;DHT22;730;48.870;12.542;2023-02-15T08:09:13;0.80;11.10
1476;DHT22;730;48.870;12.542;2023-02-15T08:11:39;0.70;11.50
1476;DHT22;730;48.870;12.542;2023-02-15T08:16:45;0.70;11.80
1476;DHT22;730;48.870;12.542;2023-02-15T08:19:24;0.70;11.60
1476;DHT22;730;48.870;12.542;2023-02-15T08:21:54;0.70;11.90
1476;DHT22;730;48.870;12.542;2023-02-15T08:24:24;0.70;12.00
1476;DHT22;730;48.870;12.542;2023-02-15T08:26:52;0.70;11.80
1476;DHT22;730;48.870;12.542;2023-02-15T08:29:20;0.80;11.50
1476;DHT22;730;48.870;12.542;2023-02-15T08:31:49;0.70;11.70
1476;DHT22;730;48.870;12.542;2023-02-15T08:34:17;0.70;12.00
1476;DHT22;730;48.870;12.542;2023-02-15T08:36:44;0.60;11.90
1476;DHT22;730;48.870;12.542;2023-02-15T08:39:14;0.60;12.60
1476;DHT22;730;48.870;12.542;2023-02-15T08:41:45;0.60;12.90
1476;DHT22;730;48.870;12.542;2023-02-15T08:44:11;0.70;13.00
1476;DHT22;730;48.870;12.542;2023-02-15T08:46:40;0.70;13.20
1476;DHT22;730;48.870;12.542;2023-02-15T08:49:08;0.70;13.30
1476;DHT22;730;48.870;12.542;2023-02-15T08:51:36;0.70;13.10
1476;DHT22;730;48.870;12.542;2023-02-15T08:54:04;0.80;12.40
1476;DHT22;730;48.870;12.542;2023-02-15T08:56:36;0.80;12.50
1476;DHT22;730;48.870;12.542;2023-02-15T08:59:03;0.70;12.10
1476;DHT22;730;48.870;12.542;2023-02-15T09:01:32;0.60;12.10
1476;DHT22;730;48.870;12.542;2023-02-15T09:04:01;0.60;12.60
1476;DHT22;730;48.870;12.542;2023-02-15T09:06:28;0.60;12.80
1476;DHT22;730;48.870;12.542;2023-02-15T09:08:56;0.50;12.50
1476;DHT22;730;48.870;12.542;2023-02-15T09:11:28;0.50;12.60
1476;DHT22;730;48.870;12.542;2023-02-15T09:13:56;0.50;12.10
1476;DHT22;730;48.870;12.542;2023-02-15T09:16:24;0.50;12.20
1476;DHT22;730;48.870;12.542;2023-02-15T09:18:51;0.60;11.90
1476;DHT22;730;48.870;12.542;2023-02-15T09:21:21;0.60;11.90
1476;DHT22;730;48.870;12.542;2023-02-15T09:23:50;0.60;11.40
1476;DHT22;730;48.870;12.542;2023-02-15T09:26:20;0.60;11.80
1476;DHT22;730;48.870;12.542;2023-02-15T09:28:47;0.60;12.10
1476;DHT22;730;48.870;12.542;2023-02-15T09:31:17;0.60;12.00
1476;DHT22;730;48.870;12.542;2023-02-15T09:33:45;0.60;11.50
1476;DHT22;730;48.870;12.542;2023-02-15T09:38:46;0.60;12.40
1476;DHT22;730;48.870;12.542;2023-02-15T09:41:28;0.70;12.60
1476;DHT22;730;48.870;12.542;2023-02-15T09:44:10;0.70;12.50
1476;DHT22;730;48.870;12.542;2023-02-15T09:50:01;0.70;11.80
1476;DHT22;730;48.870;12.542;2023-02-15T09:52:33;0.70;11.70
1476;DHT22;730;48.870;12.542;2023-02-15T10:11:31;1.10;11.80
1476;DHT22;730;48.870;12.542;2023-02-15T10:14:26;1.20;11.60
1476;DHT22;730;48.870;12.542;2023-02-15T10:17:13;1.20;11.30
1476;DHT22;730;48.870;12.542;2023-02-15T10:20:17;1.30;10.10
1476;DHT22;730;48.870;12.542;2023-02-15T10:23:09;1.20;9.90
1476;DHT22;730;48.870;12.542;2023-02-15T10:28:23;1.20;9.80
1476;DHT22;730;48.870;12.542;2023-02-15T10:31:03;1.30;9.90
1476;DHT22;730;48.870;12.542;2023-02-15T10:33:43;1.30;9.00
1476;DHT22;730;48.870;12.542;2023-02-15T10:36:26;1.40;9.20
1476;DHT22;730;48.870;12.542;2023-02-15T11:01:22;1.40;7.80
1476;DHT22;730;48.870;12.542;2023-02-15T11:06:48;1.50;7.90
1476;DHT22;730;48.870;12.542;2023-02-15T11:09:18;1.60;7.80
1476;DHT22;730;48.870;12.542;2023-02-15T11:11:53;1.50;7.00
1476;DHT22;730;48.870;12.542;2023-02-15T11:17:17;1.70;7.10
1476;DHT22;730;48.870;12.542;2023-02-15T11:22:38;1.80;6.60
1476;DHT22;730;48.870;12.542;2023-02-15T11:25:15;1.80;7.00
1476;DHT22;730;48.870;12.542;2023-02-15T11:27:45;1.80;7.10
1476;DHT22;730;48.870;12.542;2023-02-15T11:30:22;1.90;6.80
1476;DHT22;730;48.870;12.542;2023-02-15T11:32:54;1.90;6.40
1476;DHT22;730;48.870;12.542;2023-02-15T11:35:29;2.00;5.80
1476;DHT22;730;48.870;12.542;2023-02-15T11:38:17;2.10;5.80
1476;DHT22;730;48.870;12.542;2023-02-15T11:40:51;2.00;5.50
1476;DHT22;730;48.870;12.542;2023-02-15T11:43:43;2.00;5.60
1476;DHT22;730;48.870;12.542;2023-02-15T11:46:12;2.00;4.60
1476;DHT22;730;48.870;12.542;2023-02-15T11:48:39;1.90;5.10
1476;DHT22;730;48.870;12.542;2023-02-15T11:51:08;1.90;5.60
1476;DHT22;730;48.870;12.542;2023-02-15T11:53:37;1.90;5.80
1476;DHT22;730;48.870;12.542;2023-02-15T11:56:04;1.90;5.60
1476;DHT22;730;48.870;12.542;2023-02-15T11:59:06;1.90;5.60
1476;DHT22;730;48.870;12.542;2023-02-15T12:01:35;1.90;5.70
1476;DHT22;730;48.870;12.542;2023-02-15T12:06:49;1.90;5.30
1476;DHT22;730;48.870;12.542;2023-02-15T12:09:38;1.90;5.60
1476;DHT22;730;48.870;12.542;2023-02-15T12:12:27;1.80;5.90
1476;DHT22;730;48.870;12.542;2023-02-15T12:14:58;1.70;5.90
1476;DHT22;730;48.870;12.542;2023-02-15T12:17:27;1.70;6.60
1476;DHT22;730;48.870;12.542;2023-02-15T12:19:57;1.70;7.10
1476;DHT22;730;48.870;12.542;2023-02-15T12:22:29;1.80;6.80
1476;DHT22;730;48.870;12.542;2023-02-15T12:25:02;1.70;7.20
1476;DHT22;730;48.870;12.542;2023-02-15T12:27:33;1.80;7.20
1476;DHT22;730;48.870;12.542;2023-02-15T12:30:15;1.90;6.40
1476;DHT22;730;48.870;12.542;2023-02-15T12:35:33;1.90;6.50
1476;DHT22;730;48.870;12.542;2023-02-15T12:38:23;1.90;6.30
1476;DHT22;730;48.870;12.542;2023-02-15T12:41:04;1.90;6.00
1476;DHT22;730;48.870;12.542;2023-02-15T12:43:38;1.90;6.20
1476;DHT22;730;48.870;12.542;2023-02-15T12:46:29;1.90;6.20
1476;DHT22;730;48.870;12.542;2023-02-15T12:49:17;1.90;5.60
1476;DHT22;730;48.870;12.542;2023-02-15T12:51:54;1.90;6.30
1476;DHT22;730;48.870;12.542;2023-02-15T12:54:41;1.90;5.90
1476;DHT22;730;48.870;12.542;2023-02-15T13:02:51;1.60;7.80
1476;DHT22;730;48.870;12.542;2023-02-15T13:05:38;1.60;7.80
1476;DHT22;730;48.870;12.542;2023-02-15T13:08:16;1.60;7.90
1476;DHT22;730;48.870;12.542;2023-02-15T13:10:59;1.70;7.70
1476;DHT22;730;48.870;12.542;2023-02-15T13:13:30;1.80;7.20
1476;DHT22;730;48.870;12.542;2023-02-15T13:16:01;1.70;7.10
1476;DHT22;730;48.870;12.542;2023-02-15T13:18:35;1.70;7.30
1476;DHT22;730;48.870;12.542;2023-02-15T13:21:18;1.80;7.00
1476;DHT22;730;48.870;12.542;2023-02-15T13:23:57;1.80;7.30
1476;DHT22;730;48.870;12.542;2023-02-15T13:26:29;1.90;7.00
1476;DHT22;730;48.870;12.542;2023-02-15T13:29:07;1.90;7.00
1476;DHT22;730;48.870;12.542;2023-02-15T13:31:38;1.90;6.70
1476;DHT22;730;48.870;12.542;2023-02-15T13:34:13;1.90;6.60
1476;DHT22;730;48.870;12.542;2023-02-15T13:39:51;1.90;6.30
1476;DHT22;730;48.870;12.542;2023-02-15T13:45:43;1.90;6.20
1476;DHT22;730;48.870;12.542;2023-02-15T13:56:59;2.00;5.20
1476;DHT22;730;48.870;12.542;2023-02-15T14:02:30;2.00;5.30
1476;DHT22;730;48.870;12.542;2023-02-15T14:15:03;2.10;5.20
1476;DHT22;730;48.870;12.542;2023-02-15T14:20:41;2.10;5.60
1476;DHT22;730;48.870;12.542;2023-02-15T14:25:45;2.10;5.70
1476;DHT22;730;48.870;12.542;2023-02-15T14:28:33;2.10;5.90
1476;DHT22;730;48.870;12.542;2023-02-15T14:31:02;2.10;5.60
1476;DHT22;730;48.870;12.542;2023-02-15T14:33:37;2.10;5.30
1476;DHT22;730;48.870;12.542;2023-02-15T14:36:18;2.10;5.40
1476;DHT22;730;48.870;12.542;2023-02-15T14:39:06;2.10;4.80
1476;DHT22;730;48.870;12.542;2023-02-15T14:42:04;2.20;4.90
1476;DHT22;730;48.870;12.542;2023-02-15T14:44:39;2.20;4.60
1476;DHT22;730;48.870;12.542;2023-02-15T14:47:19;2.20;4.50
1476;DHT22;730;48.870;12.542;2023-02-15T14:49:48;2.20;4.20
1476;DHT22;730;48.870;12.542;2023-02-15T14:52:14;2.30;4.40
1476;DHT22;730;48.870;12.542;2023-02-15T14:59:41;2.30;4.40
1476;DHT22;730;48.870;12.542;2023-02-15T15:04:42;2.40;4.00
1476;DHT22;730;48.870;12.542;2023-02-15T15:07:38;2.30;3.90
1476;DHT22;730;48.870;12.542;2023-02-15T15:12:46;2.20;4.20
1476;DHT22;730;48.870;12.542;2023-02-15T15:15:28;2.20;4.20
1476;DHT22;730;48.870;12.542;2023-02-15T15:18:04;2.20;4.30
1476;DHT22;730;48.870;12.542;2023-02-15T15:26:24;2.20;4.30
1476;DHT22;730;48.870;12.542;2023-02-15T15:45:46;2.20;4.60
1476;DHT22;730;48.870;12.542;2023-02-15T15:48:35;2.20;4.40
1476;DHT22;730;48.870;12.542;2023-02-15T15:51:19;2.20;4.60
1476;DHT22;730;48.870;12.542;2023-02-15T15:53:48;2.20;4.30
1476;DHT22;730;48.870;12.542;2023-02-15T15:56:33;2.20;4.20
1476;DHT22;730;48.870;12.542;2023-02-15T15:59:05;2.20;4.40
1476;DHT22;730;48.870;12.542;2023-02-15T16:01:41;2.20;4.30
1476;DHT22;730;48.870;12.542;2023-02-15T16:04:41;2.20;4.40
1476;DHT22;730;48.870;12.542;2023-02-15T16:10:04;1.80;4.50
1476;DHT22;730;48.870;12.542;2023-02-15T16:12:33;1.90;5.20
1476;DHT22;730;48.870;12.542;2023-02-15T16:17:56;1.80;5.20
1476;DHT22;730;48.870;12.542;2023-02-15T16:20:29;1.80;5.40
1476;DHT22;730;48.870;12.542;2023-02-15T16:26:11;1.80;5.20
1476;DHT22;730;48.870;12.542;2023-02-15T16:28:51;1.80;5.20
1476;DHT22;730;48.870;12.542;2023-02-15T16:31:18;1.60;5.70
1476;DHT22;730;48.870;12.542;2023-02-15T16:33:44;1.50;6.60
1476;DHT22;730;48.870;12.542;2023-02-15T16:36:32;1.60;6.80
1476;DHT22;730;48.870;12.542;2023-02-15T16:41:28;1.60;6.80
1476;DHT22;730;48.870;12.542;2023-02-15T16:44:06;1.60;6.90
1476;DHT22;730;48.870;12.542;2023-02-15T16:46:38;1.70;6.70
1476;DHT22;730;48.870;12.542;2023-02-15T16:49:15;1.70;6.40
1476;DHT22;730;48.870;12.542;2023-02-15T16:51:43;1.80;6.30
1476;DHT22;730;48.870;12.542;2023-02-15T16:54:18;1.80;6.20
1476;DHT22;730;48.870;12.542;2023-02-15T16:56:46;1.90;6.50
1476;DHT22;730;48.870;12.542;2023-02-15T16:59:30;1.90;5.70
1476;DHT22;730;48.870;12.542;2023-02-15T17:01:57;1.90;5.90
1476;DHT22;730;48.870;12.542;2023-02-15T17:04:29;1.90;5.80
1476;DHT22;730;48.870;12.542;2023-02-15T17:07:16;1.90;5.70
1476;DHT22;730;48.870;12.542;2023-02-15T17:09:51;1.90;5.60
1476;DHT22;730;48.870;12.542;2023-02-15T17:12:46;1.90;5.90
1476;DHT22;730;48.870;12.542;2023-02-15T17:15:34;1.80;5.90
1476;DHT22;730;48.870;12.542;2023-02-15T17:18:21;1.80;5.90
1476;DHT22;730;48.870;12.542;2023-02-15T17:20:50;1.70;6.10
1476;DHT22;730;48.870;12.542;2023-02-15T17:23:36;1.70;6.20
1476;DHT22;730;48.870;12.542;2023-02-15T17:26:13;1.80;6.40
1476;DHT22;730;48.870;12.542;2023-02-15T17:28:53;1.70;6.30
1476;DHT22;730;48.870;12.542;2023-02-15T17:31:29;1.80;6.30
1476;DHT22;730;48.870;12.542;2023-02-15T17:33:57;1.80;6.30
1476;DHT22;730;48.870;12.542;2023-02-15T17:36:26;1.80;6.10
1476;DHT22;730;48.870;12.542;2023-02-15T17:41:24;1.70;6.40
1476;DHT22;730;48.870;12.542;2023-02-15T17:43:50;1.70;6.70
1476;DHT22;730;48.870;12.542;2023-02-15T17:46:17;1.70;6.70
1476;DHT22;730;48.870;12.542;2023-02-15T17:48:48;1.70;6.70
1476;DHT22;730;48.870;12.542;2023-02-15T17:51:16;1.70;6.80
1476;DHT22;730;48.870;12.542;2023-02-15T17:53:43;1.70;6.90
1476;DHT22;730;48.870;12.542;2023-02-15T17:56:28;1.70;6.80
1476;DHT22;730;48.870;12.542;2023-02-15T17:58:54;1.80;6.80
1476;DHT22;730;48.870;12.542;2023-02-15T18:01:20;1.70;6.70
1476;DHT22;730;48.870;12.542;2023-02-15T18:04:09;1.80;6.70
1476;DHT22;730;48.870;12.542;2023-02-15T18:06:55;1.80;6.50
1476;DHT22;730;48.870;12.542;2023-02-15T18:09:40;1.80;6.50
1476;DHT22;730;48.870;12.542;2023-02-15T18:12:29;1.80;6.30
1476;DHT22;730;48.870;12.542;2023-02-15T18:14:56;1.80;6.60
1476;DHT22;730;48.870;12.542;2023-02-15T18:17:44;1.80;6.60
1476;DHT22;730;48.870;12.542;2023-02-15T18:20:25;1.80;6.70
1476;DHT22;730;48.870;12.542;2023-02-15T18:22:53;1.80;6.80
1476;DHT22;730;48.870;12.542;2023-02-15T18:25:21;1.80;6.50
1476;DHT22;730;48.870;12.542;2023-02-15T18:27:48;1.80;6.70
1476;DHT22;730;48.870;12.542;2023-02-15T18:30:18;1.80;6.90
1476;DHT22;730;48.870;12.542;2023-02-15T18:32:45;1.70;6.90
1476;DHT22;730;48.870;12.542;2023-02-15T18:35:17;1.80;6.90
1476;DHT22;730;48.870;12.542;2023-02-15T18:37:44;1.70;6.90
1476;DHT22;730;48.870;12.542;2023-02-15T18:40:15;1.80;6.90
1476;DHT22;730;48.870;12.542;2023-02-15T18:42:41;1.70;6.70
1476;DHT22;730;48.870;12.542;2023-02-15T18:45:16;1.80;7.20
1476;DHT22;730;48.870;12.542;2023-02-15T18:47:43;1.80;7.50
1476;DHT22;730;48.870;12.542;2023-02-15T18:50:10;1.80;7.20
1476;DHT22;730;48.870;12.542;2023-02-15T18:52:37;1.80;6.90
1476;DHT22;730;48.870;12.542;2023-02-15T18:55:12;1.80;6.80
1476;DHT22;730;48.870;12.542;2023-02-15T18:57:40;1.70;6.70
1476;DHT22;730;48.870;12.542;2023-02-15T19:00:14;1.70;7.00
1476;DHT22;730;48.870;12.542;2023-02-15T19:02:42;1.60;7.00
1476;DHT22;730;48.870;12.542;2023-02-15T19:05:08;1.60;7.30
1476;DHT22;730;48.870;12.542;2023-02-15T19:07:35;1.60;7.70
1476;DHT22;730;48.870;12.542;2023-02-15T19:10:04;1.60;7.80
1476;DHT22;730;48.870;12.542;2023-02-15T19:12:31;1.60;7.90
1476;DHT22;730;48.870;12.542;2023-02-15T19:14:59;1.60;7.90
1476;DHT22;730;48.870;12.542;2023-02-15T19:17:26;1.70;7.60
1476;DHT22;730;48.870;12.542;2023-02-15T19:19:52;1.70;7.40
1476;DHT22;730;48.870;12.542;2023-02-15T19:22:24;1.70;7.20
1476;DHT22;730;48.870;12.542;2023-02-15T19:24:51;1.60;7.20
1476;DHT22;730;48.870;12.542;2023-02-15T19:27:22;1.70;7.40
1476;DHT22;730;48.870;12.542;2023-02-15T19:29:50;1.70;7.50
1476;DHT22;730;48.870;12.542;2023-02-15T19:32:16;1.70;7.50
1476;DHT22;730;48.870;12.542;2023-02-15T19:34:42;1.70;7.50
1476;DHT22;730;48.870;12.542;2023-02-15T19:37:21;1.70;7.30
1476;DHT22;730;48.870;12.542;2023-02-15T19:39:47;1.80;7.20
1476;DHT22;730;48.870;12.542;2023-02-15T19:42:17;1.70;6.90
1476;DHT22;730;48.870;12.542;2023-02-15T19:44:44;1.50;6.40
1476;DHT22;730;48.870;12.542;2023-02-15T19:47:13;1.50;7.30
1476;DHT22;730;48.870;12.542;2023-02-15T19:49:39;1.50;7.50
1476;DHT22;730;48.870;12.542;2023-02-15T19:52:14;1.60;7.60
1476;DHT22;730;48.870;12.542;2023-02-15T19:54:41;1.60;7.30
1476;DHT22;730;48.870;12.542;2023-02-15T19:57:10;1.60;7.40
1476;DHT22;730;48.870;12.542;2023-02-15T19:59:37;1.60;7.50